Time;durP1;ratioP1;P1;durP2;ratioP2;P2;SDS_P1;SDS_P2;PMS_P1;PMS_P2;Temp;Humidity;BMP_temperature;BMP_pressure;BME280_temperature;BME280_humidity;BME280_pressure;Samples;Min_cycle;Max_cycle;Signal;HPM_P1;HPM_P2
2023/09/10 00:01:21;;;;;;;17.13;13.50;;;15.50;99.90;;;;;;10210056;29;20261;-82
2023/09/10 00:06:24;;;;;;;17.95;14.82;;;15.40;99.90;;;;;;10210068;29;20235;-82
2023/09/10 00:11:26;;;;;;;18.83;16.80;;;15.50;99.90;;;;;;10187126;29;20290;-82
2023/09/10 00:16:29;;;;;;;25.52;17.30;;;15.30;99.90;;;;;;10192634;29;20250;-83
2023/09/10 00:21:34;;;;;;;21.73;17.33;;;15.30;99.90;;;;;;10209604;29;20302;-83
2023/09/10 00:26:37;;;;;;;21.05;16.17;;;15.30;99.90;;;;;;10209379;29;20242;-83
2023/09/10 00:31:39;;;;;;;22.83;17.83;;;15.30;99.90;;;;;;10209134;29;20269;-81
2023/09/10 00:36:42;;;;;;;21.60;15.90;;;15.40;99.90;;;;;;10209013;29;20317;-81
2023/09/10 00:41:45;;;;;;;21.00;16.70;;;15.20;99.90;;;;;;10192202;29;20282;-81
2023/09/10 00:46:49;;;;;;;20.67;17.08;;;15.20;99.90;;;;;;10192146;29;20262;-80
2023/09/10 00:51:52;;;;;;;19.83;16.17;;;15.20;99.90;;;;;;10191101;29;20239;-81
2023/09/10 00:56:55;;;;;;;22.95;16.70;;;15.00;99.90;;;;;;10191384;29;20258;-81
2023/09/10 01:01:58;;;;;;;15.13;13.60;;;15.00;99.90;;;;;;10191419;29;20258;-81
2023/09/10 01:07:02;;;;;;;17.13;14.43;;;15.20;99.90;;;;;;10208020;29;20275;-81
2023/09/10 01:12:29;;;;;;;16.02;13.40;;;15.00;99.90;;;;;;10208540;29;20279;-82
2023/09/10 01:18:02;;;;;;;17.83;15.05;;;15.00;99.90;;;;;;10208301;29;20282;-82
2023/09/10 01:23:15;;;;;;;14.40;12.63;;;15.00;99.90;;;;;;10181339;29;20306;-82
2023/09/10 01:28:17;;;;;;;15.25;13.80;;;15.00;99.90;;;;;;10190000;29;20250;-82
2023/09/10 01:33:29;;;;;;;20.27;16.27;;;14.90;99.90;;;;;;10189805;29;20242;-82
2023/09/10 01:38:47;;;;;;;18.77;14.73;;;14.80;99.90;;;;;;10207213;29;20704;-82
2023/09/10 01:43:51;;;;;;;20.42;15.43;;;14.90;99.90;;;;;;10207493;29;20919;-82
2023/09/10 01:48:54;;;;;;;19.30;16.15;;;14.90;99.90;;;;;;10189917;29;20234;-82
2023/09/10 01:53:57;;;;;;;17.13;14.75;;;14.80;99.90;;;;;;10189438;29;20270;-83
2023/09/10 01:58:59;;;;;;;28.05;17.00;;;14.90;99.90;;;;;;10206931;29;20684;-82
2023/09/10 02:04:02;;;;;;;20.35;15.82;;;14.80;99.90;;;;;;10194159;29;20259;-82
2023/09/10 02:09:05;;;;;;;21.45;16.85;;;14.80;99.90;;;;;;10213415;29;20254;-82
2023/09/10 02:14:08;;;;;;;20.40;16.83;;;14.80;99.90;;;;;;10214614;29;20695;-82
2023/09/10 02:19:10;;;;;;;24.45;16.55;;;14.60;99.90;;;;;;10196504;29;20231;-82
2023/09/10 02:24:13;;;;;;;20.98;17.52;;;14.50;99.90;;;;;;10196803;29;20325;-83
2023/09/10 02:29:16;;;;;;;20.70;16.70;;;14.80;99.90;;;;;;10181699;29;20282;-82
2023/09/10 02:34:18;;;;;;;23.60;16.00;;;14.80;99.90;;;;;;10183790;29;20263;-82
2023/09/10 02:39:21;;;;;;;24.13;16.38;;;14.70;99.90;;;;;;10213052;29;20251;-82
2023/09/10 02:44:23;;;;;;;18.52;15.57;;;14.70;99.90;;;;;;10213559;29;20306;-82
2023/09/10 02:49:26;;;;;;;18.25;16.13;;;14.60;99.90;;;;;;10196823;29;20211;-82
2023/09/10 02:54:29;;;;;;;21.27;16.67;;;14.70;99.90;;;;;;10212444;29;20699;-82
2023/09/10 02:59:31;;;;;;;21.17;18.23;;;14.50;99.90;;;;;;10195087;29;20336;-82
2023/09/10 03:04:34;;;;;;;18.35;14.90;;;14.50;99.90;;;;;;10195979;29;20305;-82
2023/09/10 03:09:36;;;;;;;24.55;17.92;;;14.60;99.90;;;;;;10195324;29;20326;-82
2023/09/10 03:14:39;;;;;;;21.00;17.67;;;14.50;99.90;;;;;;10195066;29;20242;-83
2023/09/10 03:19:43;;;;;;;18.52;16.52;;;14.50;99.90;;;;;;10194795;29;20262;-82
2023/09/10 03:24:47;;;;;;;23.05;17.02;;;14.50;99.90;;;;;;10195137;29;20238;-82
2023/09/10 03:29:50;;;;;;;19.98;17.13;;;14.50;99.90;;;;;;10194159;29;20246;-82
2023/09/10 03:34:52;;;;;;;18.38;16.33;;;14.50;99.90;;;;;;10178893;29;20309;-82
2023/09/10 03:39:55;;;;;;;16.55;14.85;;;14.40;99.90;;;;;;10194537;29;20270;-83
2023/09/10 03:44:58;;;;;;;19.90;17.75;;;14.40;99.90;;;;;;10194611;29;20692;-82
2023/09/10 03:50:01;;;;;;;18.55;16.05;;;14.40;99.90;;;;;;10192966;29;20305;-83
2023/09/10 03:55:04;;;;;;;19.20;15.63;;;14.40;99.90;;;;;;10194026;29;20314;-82
2023/09/10 04:00:08;;;;;;;19.00;16.83;;;14.30;99.90;;;;;;10193886;29;20656;-82
2023/09/10 04:05:13;;;;;;;16.60;14.90;;;14.40;99.90;;;;;;10209760;29;20259;-83
2023/09/10 04:10:16;;;;;;;20.50;16.30;;;14.40;99.90;;;;;;10225541;29;20254;-83
2023/09/10 04:15:18;;;;;;;13.35;12.05;;;14.50;99.90;;;;;;10199592;29;20287;-83
2023/09/10 04:20:21;;;;;;;16.80;15.05;;;14.30;99.90;;;;;;10210174;29;20262;-83
2023/09/10 04:25:24;;;;;;;19.48;15.90;;;14.50;99.90;;;;;;10208980;29;20262;-83
2023/09/10 04:30:29;;;;;;;18.02;15.85;;;14.40;99.90;;;;;;10193157;29;20214;-84
2023/09/10 04:35:33;;;;;;;20.13;15.93;;;14.30;99.90;;;;;;10192309;29;20663;-84
2023/09/10 04:40:35;;;;;;;21.40;16.52;;;14.20;99.90;;;;;;10192349;29;20324;-84
2023/09/10 04:45:38;;;;;;;19.23;14.68;;;14.10;99.90;;;;;;10209061;29;20270;-83
2023/09/10 04:50:41;;;;;;;11.98;10.82;;;14.30;99.90;;;;;;10209426;29;20246;-84
2023/09/10 04:55:44;;;;;;;19.25;16.70;;;14.60;99.90;;;;;;10208688;29;20301;-84
2023/09/10 05:00:50;;;;;;;15.93;13.65;;;14.60;99.90;;;;;;10191360;29;20238;-84
2023/09/10 05:06:00;;;;;;;15.50;12.77;;;14.80;99.90;;;;;;10191099;29;20242;-84
2023/09/10 05:11:03;;;;;;;16.98;14.35;;;14.70;99.90;;;;;;10207043;29;20243;-83
2023/09/10 05:16:06;;;;;;;21.73;16.88;;;15.00;99.90;;;;;;10190841;29;20238;-83
2023/09/10 05:21:09;;;;;;;13.48;12.02;;;15.00;99.90;;;;;;10191216;29;20270;-83
2023/09/10 05:26:12;;;;;;;10.88;9.77;;;15.30;99.90;;;;;;10190916;29;20242;-83
2023/09/10 05:31:14;;;;;;;23.00;17.83;;;15.90;99.90;;;;;;10208044;29;20648;-83
2023/09/10 05:36:17;;;;;;;15.45;13.68;;;16.00;99.90;;;;;;10189471;29;20275;-83
2023/09/10 05:41:23;;;;;;;20.85;18.60;;;15.90;99.90;;;;;;10190886;29;20708;-83
2023/09/10 05:46:26;;;;;;;19.42;16.80;;;16.30;99.90;;;;;;10190182;29;20246;-83
2023/09/10 05:51:28;;;;;;;13.13;11.90;;;16.50;99.90;;;;;;10205152;29;20270;-83
2023/09/10 05:56:32;;;;;;;13.15;10.52;;;16.70;99.90;;;;;;10186590;29;20272;-83
2023/09/10 06:01:34;;;;;;;24.90;19.88;;;16.90;99.90;;;;;;10207100;29;20266;-83
2023/09/10 06:06:37;;;;;;;12.82;11.13;;;17.10;99.90;;;;;;10188945;29;20639;-83
2023/09/10 06:11:40;;;;;;;13.30;12.07;;;17.30;99.90;;;;;;10189962;29;20211;-83
2023/09/10 06:16:43;;;;;;;8.40;7.60;;;17.60;99.90;;;;;;10207270;29;20301;-83
2023/09/10 06:21:45;;;;;;;33.55;23.77;;;17.90;99.90;;;;;;10221018;29;20287;-83
2023/09/10 06:26:48;;;;;;;16.45;14.55;;;18.00;99.90;;;;;;10222685;29;20286;-83
2023/09/10 06:31:50;;;;;;;24.00;21.20;;;18.20;99.90;;;;;;10241628;29;20340;-83
2023/09/10 06:36:53;;;;;;;13.68;12.25;;;18.30;99.90;;;;;;10238739;28;20298;-83
2023/09/10 06:41:56;;;;;;;24.77;19.30;;;18.50;99.90;;;;;;10226621;29;20258;-83
2023/09/10 06:47:11;;;;;;;13.68;12.23;;;18.70;99.90;;;;;;10233691;28;20289;-83
2023/09/10 06:52:13;;;;;;;13.15;11.85;;;18.80;99.90;;;;;;10189070;29;20291;-83
2023/09/10 06:57:16;;;;;;;12.07;10.80;;;19.00;99.90;;;;;;10202278;29;20329;-82
2023/09/10 07:02:18;;;;;;;9.20;8.32;;;19.20;99.90;;;;;;10218265;29;20467;-82
2023/09/10 07:07:21;;;;;;;11.00;9.85;;;19.40;99.90;;;;;;10197747;29;20294;-82
2023/09/10 07:12:24;;;;;;;11.05;8.05;;;19.60;99.90;;;;;;10185245;29;20247;-83
2023/09/10 07:17:26;;;;;;;15.57;12.45;;;19.80;99.90;;;;;;10211112;29;20243;-82
2023/09/10 07:22:29;;;;;;;18.85;14.77;;;20.00;99.90;;;;;;10210135;29;20262;-82
2023/09/10 07:27:31;;;;;;;12.13;10.90;;;20.10;99.90;;;;;;10195176;29;20379;-83
2023/09/10 07:32:34;;;;;;;28.13;21.67;;;20.30;99.90;;;;;;10211501;29;20246;-82
2023/09/10 07:37:37;;;;;;;28.27;21.48;;;20.50;99.90;;;;;;10211045;29;20273;-82
2023/09/10 07:42:39;;;;;;;25.55;22.17;;;20.70;99.90;;;;;;10211768;29;20259;-82
2023/09/10 07:47:42;;;;;;;8.88;8.07;;;21.00;99.90;;;;;;10211034;29;20282;-82
2023/09/10 07:52:45;;;;;;;20.55;15.55;;;21.20;99.90;;;;;;10210863;29;20250;-82
2023/09/10 07:57:48;;;;;;;12.77;11.48;;;21.50;99.90;;;;;;10193185;29;20286;-82
2023/09/10 08:02:50;;;;;;;17.13;15.40;;;21.70;99.90;;;;;;10208563;29;20258;-82
2023/09/10 08:07:53;;;;;;;14.93;12.80;;;21.90;99.90;;;;;;10205667;29;20298;-82
2023/09/10 08:12:56;;;;;;;24.80;20.85;;;22.20;99.90;;;;;;10210026;29;20702;-82
2023/09/10 08:17:59;;;;;;;21.77;19.45;;;22.40;99.90;;;;;;10192231;29;20294;-82
2023/09/10 08:23:03;;;;;;;24.23;18.80;;;22.50;99.90;;;;;;10208654;29;20329;-82
2023/09/10 08:28:05;;;;;;;21.80;19.48;;;22.60;99.90;;;;;;10191100;29;20242;-83
2023/09/10 08:33:08;;;;;;;14.80;13.25;;;22.80;99.90;;;;;;10208335;29;20798;-83
2023/09/10 08:38:10;;;;;;;24.48;21.83;;;23.00;99.90;;;;;;10208451;29;20258;-83
2023/09/10 08:43:18;;;;;;;17.77;14.00;;;23.20;99.90;;;;;;10208802;29;20266;-83
2023/09/10 08:48:20;;;;;;;17.73;15.95;;;23.30;99.90;;;;;;10207628;29;20298;-83
2023/09/10 08:53:24;;;;;;;19.58;16.65;;;23.40;99.90;;;;;;10208364;29;20666;-83
2023/09/10 08:58:28;;;;;;;9.80;8.90;;;23.60;99.90;;;;;;10207389;29;20748;-82
2023/09/10 09:03:32;;;;;;;10.35;9.25;;;23.80;99.90;;;;;;10196499;29;20270;-82
2023/09/10 09:08:36;;;;;;;17.65;15.73;;;23.90;99.90;;;;;;10207579;29;20315;-82
2023/09/10 09:13:48;;;;;;;17.67;15.77;;;24.10;99.90;;;;;;10207338;29;20314;-82
2023/09/10 09:18:52;;;;;;;13.93;10.95;;;24.20;99.90;;;;;;10206875;29;20238;-82
2023/09/10 09:23:59;;;;;;;22.27;14.20;;;24.40;99.90;;;;;;10167869;29;20275;-82
2023/09/10 09:29:02;;;;;;;10.98;9.60;;;24.50;99.90;;;;;;10168128;29;20271;-82
2023/09/10 09:34:05;;;;;;;14.85;12.88;;;24.60;99.90;;;;;;10205569;29;20703;-82
2023/09/10 09:39:07;;;;;;;10.85;8.80;;;24.60;99.90;;;;;;10189807;29;20246;-83
2023/09/10 09:44:10;;;;;;;13.95;11.80;;;24.80;99.90;;;;;;10207219;29;20784;-83
2023/09/10 09:49:13;;;;;;;13.55;12.15;;;24.80;99.90;;;;;;10205609;29;20238;-84
2023/09/10 09:54:15;;;;;;;13.05;11.45;;;25.00;99.90;;;;;;10189623;29;20250;-84
2023/09/10 09:59:18;;;;;;;9.52;8.27;;;25.10;99.90;;;;;;10189614;29;20631;-84
2023/09/10 10:04:22;;;;;;;12.73;9.35;;;25.20;99.90;;;;;;10205782;29;20325;-84
2023/09/10 10:09:35;;;;;;;9.77;8.82;;;25.20;99.90;;;;;;10206649;29;20246;-83
2023/09/10 10:14:37;;;;;;;15.68;10.00;;;25.30;99.90;;;;;;10206316;29;20247;-84
2023/09/10 10:19:41;;;;;;;11.25;10.13;;;25.40;99.90;;;;;;10204916;29;20250;-84
2023/09/10 10:24:45;;;;;;;17.05;11.85;;;25.40;99.90;;;;;;10184397;29;20873;-84
2023/09/10 10:29:48;;;;;;;15.52;10.52;;;25.50;99.90;;;;;;10211880;29;20247;-84
2023/09/10 10:34:59;;;;;;;17.20;12.30;;;25.60;99.90;;;;;;10211288;29;20310;-84
2023/09/10 10:40:08;;;;;;;13.82;10.95;;;25.60;99.90;;;;;;10188696;29;20255;-84
2023/09/10 10:45:15;;;;;;;11.30;10.02;;;25.70;99.90;;;;;;10213648;29;20267;-85
2023/09/10 10:50:27;;;;;;;10.45;9.35;;;25.80;99.90;;;;;;10196351;29;20322;-84
2023/09/10 10:55:32;;;;;;;14.55;11.05;;;25.80;99.90;;;;;;10210233;29;20270;-84
2023/09/10 11:00:35;;;;;;;15.02;11.48;;;25.90;99.90;;;;;;10193469;29;20267;-84
2023/09/10 11:05:52;;;;;;;17.27;12.77;;;25.90;99.90;;;;;;10211825;29;20370;-83
2023/09/10 11:10:56;;;;;;;12.27;9.45;;;25.90;99.90;;;;;;10209731;29;20242;-83
2023/09/10 11:16:04;;;;;;;19.00;11.48;;;25.90;99.90;;;;;;10208923;29;20271;-83
2023/09/10 11:21:08;;;;;;;11.13;9.15;;;26.00;99.90;;;;;;10210433;29;20262;-83
2023/09/10 11:26:14;;;;;;;11.15;9.95;;;26.00;99.90;;;;;;10210964;29;20653;-83
2023/09/10 11:31:38;;;;;;;10.00;9.00;;;26.00;99.90;;;;;;10211830;29;20246;-84
2023/09/10 11:36:46;;;;;;;9.95;8.95;;;26.10;99.90;;;;;;10194079;29;20820;-83
2023/09/10 11:41:50;;;;;;;10.77;9.68;;;26.10;99.90;;;;;;10212086;29;20638;-83
2023/09/10 11:46:53;;;;;;;9.50;8.60;;;26.00;99.90;;;;;;10211278;29;20302;-84
2023/09/10 11:51:57;;;;;;;8.80;7.25;;;26.10;99.90;;;;;;10211565;29;20254;-84
2023/09/10 11:56:59;;;;;;;10.25;8.63;;;26.20;99.90;;;;;;10194475;29;20266;-84
2023/09/10 12:02:03;;;;;;;11.68;8.52;;;26.20;99.90;;;;;;10211181;29;20845;-84
2023/09/10 12:07:06;;;;;;;9.60;8.70;;;26.20;99.90;;;;;;10210894;29;20231;-85
2023/09/10 12:12:19;;;;;;;13.27;8.63;;;26.20;99.90;;;;;;10211030;29;20774;-83
2023/09/10 12:17:22;;;;;;;12.35;7.93;;;26.30;99.90;;;;;;10210315;29;20258;-84
2023/09/10 12:22:25;;;;;;;12.40;9.45;;;26.30;99.90;;;;;;10209964;29;20714;-84
2023/09/10 12:27:28;;;;;;;11.32;10.23;;;26.40;99.90;;;;;;10210091;29;20243;-83
2023/09/10 12:32:31;;;;;;;10.45;9.38;;;26.40;99.90;;;;;;10209542;29;20255;-83
2023/09/10 12:37:34;;;;;;;8.63;7.82;;;26.40;99.90;;;;;;10209379;29;20258;-83
2023/09/10 12:42:37;;;;;;;10.57;9.55;;;26.40;99.90;;;;;;10207944;29;20329;-83
2023/09/10 12:47:40;;;;;;;10.63;8.18;;;26.40;99.90;;;;;;10209470;29;20234;-84
2023/09/10 12:52:43;;;;;;;9.57;7.85;;;26.50;99.90;;;;;;10209118;29;20254;-83
2023/09/10 12:57:55;;;;;;;9.05;7.88;;;26.50;99.90;;;;;;10209012;29;20262;-84
2023/09/10 13:02:58;;;;;;;10.57;9.48;;;26.50;99.90;;;;;;10208944;29;20766;-84
2023/09/10 13:08:01;;;;;;;10.50;9.50;;;26.50;99.90;;;;;;10206915;29;20250;-84
2023/09/10 13:13:03;;;;;;;11.85;10.00;;;26.50;99.90;;;;;;10208605;29;20290;-84
2023/09/10 13:18:06;;;;;;;8.73;7.82;;;26.50;99.90;;;;;;10208440;29;20282;-83
2023/09/10 13:23:09;;;;;;;10.75;9.13;;;26.60;99.90;;;;;;10222414;29;20266;-83
2023/09/10 13:28:11;;;;;;;12.70;7.47;;;26.60;99.90;;;;;;10208218;29;20886;-83
2023/09/10 13:33:14;;;;;;;8.05;7.35;;;26.60;99.90;;;;;;10222611;29;20246;-82
2023/09/10 13:38:17;;;;;;;11.98;10.40;;;26.70;99.90;;;;;;10206202;29;20246;-83
2023/09/10 13:43:19;;;;;;;9.32;8.40;;;26.70;99.90;;;;;;10207875;29;20263;-82
2023/09/10 13:48:22;;;;;;;11.88;10.70;;;26.70;99.90;;;;;;10207821;29;20291;-83
2023/09/10 13:53:24;;;;;;;9.05;8.18;;;26.90;99.90;;;;;;10221822;29;20961;-83
2023/09/10 13:58:27;;;;;;;12.63;11.43;;;26.80;99.90;;;;;;10209769;29;20330;-83
2023/09/10 14:03:30;;;;;;;7.88;6.95;;;26.80;99.90;;;;;;10215839;29;20434;-83
2023/09/10 14:08:32;;;;;;;11.15;10.05;;;26.70;99.90;;;;;;10215767;29;20293;-83
2023/09/10 14:13:35;;;;;;;10.63;8.10;;;26.70;99.90;;;;;;10215169;29;20242;-82
2023/09/10 14:18:40;;;;;;;11.00;10.00;;;26.70;99.90;;;;;;10214736;29;20242;-83
2023/09/10 14:23:43;;;;;;;10.63;9.63;;;26.80;99.90;;;;;;10214542;29;20333;-83
2023/09/10 14:28:46;;;;;;;12.75;8.23;;;26.70;99.90;;;;;;10214457;29;20310;-82
2023/09/10 14:33:48;;;;;;;12.25;11.02;;;26.70;99.90;;;;;;10214370;29;20247;-82
2023/09/10 14:38:51;;;;;;;10.05;9.05;;;26.70;99.90;;;;;;10213991;29;20247;-83
2023/09/10 14:43:53;;;;;;;9.38;8.57;;;26.70;99.90;;;;;;10214033;29;20648;-82
2023/09/10 14:48:56;;;;;;;11.45;10.35;;;26.70;99.90;;;;;;10213705;29;20223;-83
2023/09/10 14:53:59;;;;;;;14.20;10.45;;;26.60;99.90;;;;;;10213364;29;20716;-83
2023/09/10 14:59:01;;;;;;;10.13;9.13;;;26.60;99.90;;;;;;10211873;29;20677;-82
2023/09/10 15:04:04;;;;;;;12.20;11.00;;;26.50;99.90;;;;;;10211643;29;20731;-82
2023/09/10 15:09:07;;;;;;;9.73;8.77;;;26.50;99.90;;;;;;10212260;29;20688;-83
2023/09/10 15:14:10;;;;;;;10.88;9.88;;;26.40;99.90;;;;;;10211735;29;20639;-83
2023/09/10 15:19:12;;;;;;;10.32;9.32;;;26.50;99.90;;;;;;10212417;29;20298;-82
2023/09/10 15:24:14;;;;;;;10.50;9.50;;;26.40;99.90;;;;;;10212544;29;20297;-83
2023/09/10 15:29:17;;;;;;;10.70;9.68;;;26.40;99.90;;;;;;10212352;29;20301;-83
2023/09/10 15:34:20;;;;;;;10.63;8.50;;;26.40;99.90;;;;;;10195266;29;20294;-83
2023/09/10 15:39:23;;;;;;;9.80;8.90;;;26.40;99.90;;;;;;10211083;29;20691;-83
2023/09/10 15:44:25;;;;;;;12.13;11.07;;;26.30;99.90;;;;;;10211778;29;20326;-83
2023/09/10 15:49:28;;;;;;;10.98;9.88;;;26.30;99.90;;;;;;10210062;29;20243;-83
2023/09/10 15:54:31;;;;;;;10.02;9.02;;;26.20;99.90;;;;;;10211312;29;20266;-83
2023/09/10 15:59:37;;;;;;;10.48;9.55;;;26.10;99.90;;;;;;10211331;29;20235;-83
2023/09/10 16:04:40;;;;;;;11.25;10.25;;;26.10;99.90;;;;;;10210692;29;20266;-83
2023/09/10 16:09:42;;;;;;;9.30;8.50;;;26.00;99.90;;;;;;10210260;29;20298;-83
2023/09/10 16:14:45;;;;;;;9.50;8.27;;;25.90;99.90;;;;;;10210680;29;20274;-82
2023/09/10 16:19:47;;;;;;;10.07;7.90;;;25.60;99.90;;;;;;10210146;29;20246;-83
2023/09/10 16:24:50;;;;;;;8.70;7.88;;;25.40;99.90;;;;;;10209860;29;20309;-83
2023/09/10 16:29:52;;;;;;;8.45;7.47;;;25.20;99.90;;;;;;10210316;29;20243;-83
2023/09/10 16:34:55;;;;;;;7.97;7.28;;;24.90;99.90;;;;;;10209851;29;20263;-83
2023/09/10 16:39:57;;;;;;;11.70;8.35;;;24.60;99.90;;;;;;10209673;29;20254;-83
2023/09/10 16:45:01;;;;;;;11.65;8.05;;;24.40;99.90;;;;;;10192914;29;20729;-83
2023/09/10 16:50:04;;;;;;;9.85;8.93;;;24.10;99.90;;;;;;10191846;29;20238;-83
2023/09/10 16:55:07;;;;;;;13.18;9.00;;;23.80;99.90;;;;;;10208814;29;20743;-82
2023/09/10 17:00:10;;;;;;;8.93;7.57;;;23.60;99.90;;;;;;10207895;29;20376;-83
2023/09/10 17:05:14;;;;;;;9.10;7.88;;;23.30;99.90;;;;;;10208197;29;20266;-82
2023/09/10 17:10:17;;;;;;;10.75;8.55;;;23.00;99.90;;;;;;10209087;29;20660;-83
2023/09/10 17:15:20;;;;;;;10.15;8.38;;;22.60;99.90;;;;;;10208763;29;20695;-83
2023/09/10 17:20:22;;;;;;;12.50;8.13;;;22.30;99.90;;;;;;10208504;29;20995;-83
2023/09/10 17:25:25;;;;;;;12.95;8.43;;;22.10;99.90;;;;;;10208152;29;20258;-82
2023/09/10 17:30:28;;;;;;;20.25;9.00;;;22.00;99.90;;;;;;10208176;29;20238;-84
2023/09/10 17:35:31;;;;;;;10.27;8.07;;;21.70;99.90;;;;;;10208152;29;20714;-83
2023/09/10 17:40:34;;;;;;;17.67;8.93;;;21.60;99.90;;;;;;10151972;29;20279;-83
2023/09/10 17:45:36;;;;;;;16.05;8.52;;;21.40;99.90;;;;;;10168980;29;20271;-84
2023/09/10 17:50:39;;;;;;;20.10;9.35;;;21.20;99.90;;;;;;10152043;29;20287;-83
2023/09/10 17:55:43;;;;;;;19.13;9.55;;;21.10;99.90;;;;;;10183508;29;20290;-83
2023/09/10 18:00:47;;;;;;;28.85;9.55;;;20.90;99.90;;;;;;10207404;29;20270;-84
2023/09/10 18:05:49;;;;;;;13.95;9.05;;;20.70;99.90;;;;;;10208076;29;20321;-83
2023/09/10 18:10:52;;;;;;;29.85;11.10;;;20.60;99.90;;;;;;10207570;29;20290;-83
2023/09/10 18:15:54;;;;;;;34.30;9.57;;;20.40;99.90;;;;;;10206147;29;20298;-84
2023/09/10 18:20:57;;;;;;;25.38;9.20;;;20.30;99.90;;;;;;10172780;29;20247;-83
2023/09/10 18:25:59;;;;;;;21.27;9.70;;;20.00;99.90;;;;;;10186949;29;20258;-83
2023/09/10 18:31:06;;;;;;;23.10;10.13;;;19.90;99.90;;;;;;10201435;28;20235;-83
2023/09/10 18:36:09;;;;;;;21.33;9.60;;;19.80;99.90;;;;;;10192803;29;20286;-83
2023/09/10 18:41:12;;;;;;;19.65;9.05;;;19.70;99.90;;;;;;10201318;29;20523;-83
2023/09/10 18:46:14;;;;;;;21.45;10.55;;;19.60;99.90;;;;;;10211801;29;20314;-83
2023/09/10 18:51:17;;;;;;;33.53;10.85;;;19.50;99.90;;;;;;10215562;29;20263;-83
2023/09/10 18:56:20;;;;;;;30.02;11.50;;;19.30;99.90;;;;;;10210169;29;20226;-83
2023/09/10 19:01:22;;;;;;;29.25;10.75;;;19.30;99.90;;;;;;10198835;29;20215;-83
2023/09/10 19:06:25;;;;;;;42.22;11.27;;;19.20;99.90;;;;;;10198484;29;20283;-84
2023/09/10 19:11:27;;;;;;;14.82;9.48;;;19.10;99.90;;;;;;10206066;29;20207;-84
2023/09/10 19:16:30;;;;;;;12.38;8.63;;;19.10;99.90;;;;;;10212588;29;20215;-83
2023/09/10 19:21:37;;;;;;;29.38;11.15;;;19.10;99.90;;;;;;10199157;29;20433;-83
2023/09/10 19:26:39;;;;;;;39.25;12.85;;;18.80;99.90;;;;;;10197026;29;20262;-83
2023/09/10 19:31:42;;;;;;;25.20;9.82;;;18.70;99.90;;;;;;10210260;29;20231;-83
2023/09/10 19:36:45;;;;;;;36.15;12.65;;;18.60;99.90;;;;;;10210417;29;20242;-83
2023/09/10 19:41:47;;;;;;;32.63;11.45;;;18.60;99.90;;;;;;10194173;29;20246;-83
2023/09/10 19:46:50;;;;;;;24.40;10.63;;;18.50;99.90;;;;;;10194702;29;20333;-83
2023/09/10 19:51:53;;;;;;;34.72;12.60;;;18.40;99.90;;;;;;10197990;29;20266;-83
2023/09/10 19:56:55;;;;;;;26.23;12.35;;;18.40;99.90;;;;;;10214971;29;20234;-83
2023/09/10 20:01:58;;;;;;;18.45;10.60;;;18.30;99.90;;;;;;10196586;29;20239;-84
2023/09/10 20:07:00;;;;;;;22.52;11.60;;;18.30;99.90;;;;;;10193704;29;20259;-83
2023/09/10 20:12:03;;;;;;;12.32;9.05;;;18.20;99.90;;;;;;10194601;29;21002;-83
2023/09/10 20:17:06;;;;;;;24.73;13.43;;;18.20;99.90;;;;;;10198205;29;20215;-83
2023/09/10 20:22:08;;;;;;;19.27;11.57;;;18.10;99.90;;;;;;10183515;29;20223;-84
2023/09/10 20:27:15;;;;;;;20.95;12.18;;;18.10;99.90;;;;;;10194352;29;20691;-83
2023/09/10 20:32:18;;;;;;;17.45;12.55;;;18.20;99.90;;;;;;10209640;29;20286;-83
2023/09/10 20:37:21;;;;;;;19.60;12.65;;;18.10;99.90;;;;;;10208834;29;20416;-83
2023/09/10 20:42:25;;;;;;;19.77;11.88;;;18.00;99.90;;;;;;10210917;29;20299;-84
2023/09/10 20:47:28;;;;;;;15.32;10.85;;;17.90;99.90;;;;;;10192797;29;20795;-83
2023/09/10 20:52:30;;;;;;;19.65;12.40;;;17.90;99.90;;;;;;10209173;29;20306;-83
2023/09/10 20:57:33;;;;;;;12.57;9.18;;;17.70;99.90;;;;;;10207484;29;20274;-82
2023/09/10 21:02:36;;;;;;;19.42;12.65;;;17.70;99.90;;;;;;10196639;29;20563;-86
2023/09/10 21:07:40;;;;;;;16.45;12.20;;;17.80;99.90;;;;;;10174352;29;20231;-83
2023/09/10 21:12:43;;;;;;;19.02;13.18;;;17.70;99.90;;;;;;10196138;29;20215;-83
2023/09/10 21:17:50;;;;;;;16.25;11.77;;;17.80;99.90;;;;;;10191531;29;20305;-84
2023/09/10 21:22:53;;;;;;;21.08;12.85;;;17.70;99.90;;;;;;10207444;29;20239;-82
2023/09/10 21:27:56;;;;;;;21.92;12.20;;;17.70;99.90;;;;;;10207622;29;20262;-83
2023/09/10 21:32:59;;;;;;;14.90;11.93;;;17.70;99.90;;;;;;10207016;29;20269;-83
2023/09/10 21:38:02;;;;;;;18.13;12.20;;;17.70;99.90;;;;;;10202584;29;20246;-85
2023/09/10 21:43:05;;;;;;;13.52;10.00;;;17.60;99.90;;;;;;10202592;29;20239;-84
2023/09/10 21:48:08;;;;;;;17.05;13.70;;;17.50;99.90;;;;;;10207286;29;20250;-85
2023/09/10 21:53:11;;;;;;;20.17;13.23;;;17.50;99.90;;;;;;10193636;29;20251;-84
2023/09/10 21:58:14;;;;;;;13.88;11.63;;;17.40;99.90;;;;;;10169370;29;20303;-84
2023/09/10 22:03:16;;;;;;;14.77;11.50;;;17.50;99.90;;;;;;10167789;29;20251;-84
2023/09/10 22:08:21;;;;;;;12.63;11.32;;;17.40;99.90;;;;;;10168973;29;20267;-84
2023/09/10 22:13:23;;;;;;;14.95;13.43;;;17.40;99.90;;;;;;10189473;29;20301;-84
2023/09/10 22:18:26;;;;;;;17.88;13.27;;;17.40;99.90;;;;;;10208976;29;20246;-85
2023/09/10 22:23:29;;;;;;;16.77;14.13;;;17.60;99.90;;;;;;10198851;29;20231;-85
2023/09/10 22:28:31;;;;;;;20.63;14.15;;;17.30;99.90;;;;;;10215731;29;20638;-85
2023/09/10 22:33:34;;;;;;;12.80;10.82;;;17.10;99.90;;;;;;10215209;29;20700;-85
2023/09/10 22:38:37;;;;;;;12.70;11.32;;;17.30;99.90;;;;;;10214248;29;20242;-85
2023/09/10 22:43:40;;;;;;;14.35;11.05;;;17.30;99.90;;;;;;10214351;29;20219;-85
2023/09/10 22:48:42;;;;;;;25.63;13.63;;;17.10;99.90;;;;;;10214290;29;20259;-85
2023/09/10 22:53:50;;;;;;;12.55;11.13;;;16.90;99.90;;;;;;10214539;29;20309;-84
2023/09/10 22:58:53;;;;;;;16.13;12.75;;;17.10;99.90;;;;;;10141349;29;20708;-84
2023/09/10 23:03:55;;;;;;;11.73;9.40;;;16.90;99.90;;;;;;10174832;29;20796;-85
2023/09/10 23:08:58;;;;;;;14.68;12.80;;;17.10;99.90;;;;;;10172998;29;20247;-85
2023/09/10 23:14:01;;;;;;;13.48;12.07;;;17.40;99.90;;;;;;10172801;29;20263;-84
2023/09/10 23:19:03;;;;;;;16.50;12.98;;;17.20;99.90;;;;;;10174027;29;20243;-84
2023/09/10 23:24:06;;;;;;;11.05;9.88;;;17.20;99.90;;;;;;10172225;29;20247;-85
2023/09/10 23:29:09;;;;;;;14.30;9.90;;;16.90;99.90;;;;;;10173214;29;20263;-84
2023/09/10 23:34:19;;;;;;;17.88;14.05;;;17.00;99.90;;;;;;10173606;29;20607;-85
2023/09/10 23:39:21;;;;;;;15.25;13.48;;;17.00;99.90;;;;;;10173899;29;20235;-85
2023/09/10 23:44:24;;;;;;;15.02;13.02;;;16.70;99.90;;;;;;10173275;29;20287;-84
2023/09/10 23:49:26;;;;;;;13.00;10.88;;;16.70;99.90;;;;;;10172454;29;20650;-84
2023/09/10 23:54:29;;;;;;;12.50;10.50;;;16.80;99.90;;;;;;10176011;29;20719;-84
2023/09/10 23:59:31;;;;;;;14.27;12.77;;;16.80;99.90;;;;;;10194559;29;20207;-84
